sensor_id;sensor_type;location;lat;lon;timestamp;P1;durP1;ratioP1;P2;durP2;ratioP2
3541;SDS011;1785;47.388;8.538;2023-05-10T00:02:00;2.90;;;1.03;;
3541;SDS011;1785;47.388;8.538;2023-05-10T00:04:26;1.73;;;0.90;;
3541;SDS011;1785;47.388;8.538;2023-05-10T00:06:52;1.10;;;1.00;;
3541;SDS011;1785;47.388;8.538;2023-05-10T00:09:18;3.63;;;1.40;;
3541;SDS011;1785;47.388;8.538;2023-05-10T00:11:44;1.73;;;1.20;;
3541;SDS011;1785;47.388;8.538;2023-05-10T00:14:11;1.00;;;0.90;;
3541;SDS011;1785;47.388;8.538;2023-05-10T00:16:37;2.60;;;1.00;;
3541;SDS011;1785;47.388;8.538;2023-05-10T00:19:04;0.87;;;0.87;;
3541;SDS011;1785;47.388;8.538;2023-05-10T00:21:30;1.80;;;1.10;;
3541;SDS011;1785;47.388;8.538;2023-05-10T00:23:57;1.00;;;1.00;;
3541;SDS011;1785;47.388;8.538;2023-05-10T00:26:23;1.13;;;1.00;;
3541;SDS011;1785;47.388;8.538;2023-05-10T00:28:49;2.47;;;1.17;;
3541;SDS011;1785;47.388;8.538;2023-05-10T00:31:15;0.97;;;0.97;;
3541;SDS011;1785;47.388;8.538;2023-05-10T00:33:41;1.27;;;1.17;;
3541;SDS011;1785;47.388;8.538;2023-05-10T00:36:08;1.30;;;1.20;;
3541;SDS011;1785;47.388;8.538;2023-05-10T00:38:34;1.80;;;1.20;;
3541;SDS011;1785;47.388;8.538;2023-05-10T00:41:00;1.93;;;1.00;;
3541;SDS011;1785;47.388;8.538;2023-05-10T00:43:26;1.37;;;0.90;;
3541;SDS011;1785;47.388;8.538;2023-05-10T00:45:52;0.90;;;0.90;;
3541;SDS011;1785;47.388;8.538;2023-05-10T00:48:19;1.77;;;1.00;;
3541;SDS011;1785;47.388;8.538;2023-05-10T00:50:46;1.20;;;1.03;;
3541;SDS011;1785;47.388;8.538;2023-05-10T00:53:13;1.10;;;1.00;;
3541;SDS011;1785;47.388;8.538;2023-05-10T00:55:40;1.30;;;1.20;;
3541;SDS011;1785;47.388;8.538;2023-05-10T00:58:06;1.97;;;1.20;;
3541;SDS011;1785;47.388;8.538;2023-05-10T01:00:33;1.03;;;1.03;;
3541;SDS011;1785;47.388;8.538;2023-05-10T01:02:59;1.20;;;1.10;;
3541;SDS011;1785;47.388;8.538;2023-05-10T01:05:26;1.07;;;1.07;;
3541;SDS011;1785;47.388;8.538;2023-05-10T01:07:52;1.37;;;1.27;;
3541;SDS011;1785;47.388;8.538;2023-05-10T01:10:18;1.80;;;1.70;;
3541;SDS011;1785;47.388;8.538;2023-05-10T01:12:45;1.40;;;1.27;;
3541;SDS011;1785;47.388;8.538;2023-05-10T01:15:12;2.07;;;1.20;;
3541;SDS011;1785;47.388;8.538;2023-05-10T01:17:41;1.30;;;1.20;;
3541;SDS011;1785;47.388;8.538;2023-05-10T01:20:10;1.40;;;1.30;;
3541;SDS011;1785;47.388;8.538;2023-05-10T01:22:47;1.20;;;1.10;;
3541;SDS011;1785;47.388;8.538;2023-05-10T01:28:34;1.20;;;1.10;;
3541;SDS011;1785;47.388;8.538;2023-05-10T01:31:18;8.27;;;1.27;;
3541;SDS011;1785;47.388;8.538;2023-05-10T01:33:54;1.20;;;1.10;;
3541;SDS011;1785;47.388;8.538;2023-05-10T01:36:26;2.73;;;1.10;;
3541;SDS011;1785;47.388;8.538;2023-05-10T01:38:57;1.93;;;1.30;;
3541;SDS011;1785;47.388;8.538;2023-05-10T01:41:28;1.90;;;1.10;;
3541;SDS011;1785;47.388;8.538;2023-05-10T01:44:06;2.30;;;1.20;;
3541;SDS011;1785;47.388;8.538;2023-05-10T01:46:39;1.00;;;1.00;;
3541;SDS011;1785;47.388;8.538;2023-05-10T01:49:07;2.53;;;1.03;;
3541;SDS011;1785;47.388;8.538;2023-05-10T01:51:36;1.10;;;1.00;;
3541;SDS011;1785;47.388;8.538;2023-05-10T01:54:06;1.63;;;1.30;;
3541;SDS011;1785;47.388;8.538;2023-05-10T01:56:35;2.30;;;1.10;;
3541;SDS011;1785;47.388;8.538;2023-05-10T01:59:04;1.40;;;1.30;;
3541;SDS011;1785;47.388;8.538;2023-05-10T02:01:34;0.97;;;0.93;;
3541;SDS011;1785;47.388;8.538;2023-05-10T02:04:03;1.00;;;1.00;;
3541;SDS011;1785;47.388;8.538;2023-05-10T02:06:31;2.97;;;1.10;;
3541;SDS011;1785;47.388;8.538;2023-05-10T02:08:58;1.17;;;1.07;;
3541;SDS011;1785;47.388;8.538;2023-05-10T02:11:26;2.17;;;1.17;;
3541;SDS011;1785;47.388;8.538;2023-05-10T02:13:53;2.23;;;1.50;;
3541;SDS011;1785;47.388;8.538;2023-05-10T02:16:22;1.20;;;1.20;;
3541;SDS011;1785;47.388;8.538;2023-05-10T02:18:51;1.53;;;1.10;;
3541;SDS011;1785;47.388;8.538;2023-05-10T02:21:18;1.30;;;1.20;;
3541;SDS011;1785;47.388;8.538;2023-05-10T02:23:46;1.53;;;1.37;;
3541;SDS011;1785;47.388;8.538;2023-05-10T02:26:16;1.40;;;1.30;;
3541;SDS011;1785;47.388;8.538;2023-05-10T02:28:43;1.43;;;1.33;;
3541;SDS011;1785;47.388;8.538;2023-05-10T02:31:09;1.20;;;1.10;;
3541;SDS011;1785;47.388;8.538;2023-05-10T02:33:37;1.23;;;1.13;;
3541;SDS011;1785;47.388;8.538;2023-05-10T02:36:05;4.00;;;1.10;;
3541;SDS011;1785;47.388;8.538;2023-05-10T02:38:33;2.43;;;1.47;;
3541;SDS011;1785;47.388;8.538;2023-05-10T02:41:01;3.17;;;1.20;;
3541;SDS011;1785;47.388;8.538;2023-05-10T02:43:30;1.47;;;1.37;;
3541;SDS011;1785;47.388;8.538;2023-05-10T02:45:58;1.30;;;1.20;;
3541;SDS011;1785;47.388;8.538;2023-05-10T02:48:25;1.53;;;1.33;;
3541;SDS011;1785;47.388;8.538;2023-05-10T02:50:51;1.20;;;1.10;;
3541;SDS011;1785;47.388;8.538;2023-05-10T02:53:21;1.23;;;1.10;;
3541;SDS011;1785;47.388;8.538;2023-05-10T02:55:49;1.33;;;1.10;;
3541;SDS011;1785;47.388;8.538;2023-05-10T02:58:18;1.90;;;1.30;;
3541;SDS011;1785;47.388;8.538;2023-05-10T03:00:44;2.47;;;1.27;;
3541;SDS011;1785;47.388;8.538;2023-05-10T03:03:11;0.97;;;0.97;;
3541;SDS011;1785;47.388;8.538;2023-05-10T03:05:37;1.40;;;1.30;;
3541;SDS011;1785;47.388;8.538;2023-05-10T03:08:03;1.30;;;1.20;;
3541;SDS011;1785;47.388;8.538;2023-05-10T03:10:31;2.03;;;1.20;;
3541;SDS011;1785;47.388;8.538;2023-05-10T03:13:06;1.47;;;1.37;;
3541;SDS011;1785;47.388;8.538;2023-05-10T03:15:42;1.00;;;0.90;;
3541;SDS011;1785;47.388;8.538;2023-05-10T03:18:18;1.90;;;1.30;;
3541;SDS011;1785;47.388;8.538;2023-05-10T03:20:48;2.07;;;1.97;;
3541;SDS011;1785;47.388;8.538;2023-05-10T03:23:21;1.50;;;1.40;;
3541;SDS011;1785;47.388;8.538;2023-05-10T03:25:51;1.50;;;1.20;;
3541;SDS011;1785;47.388;8.538;2023-05-10T03:28:18;2.13;;;1.50;;
3541;SDS011;1785;47.388;8.538;2023-05-10T03:30:46;1.50;;;1.40;;
3541;SDS011;1785;47.388;8.538;2023-05-10T03:33:12;1.50;;;1.40;;
3541;SDS011;1785;47.388;8.538;2023-05-10T03:35:39;1.37;;;1.27;;
3541;SDS011;1785;47.388;8.538;2023-05-10T03:38:05;1.60;;;1.50;;
3541;SDS011;1785;47.388;8.538;2023-05-10T03:40:31;1.50;;;1.40;;
3541;SDS011;1785;47.388;8.538;2023-05-10T03:42:57;1.20;;;0.80;;
3541;SDS011;1785;47.388;8.538;2023-05-10T03:45:23;1.60;;;1.50;;
3541;SDS011;1785;47.388;8.538;2023-05-10T03:47:50;1.80;;;1.70;;
3541;SDS011;1785;47.388;8.538;2023-05-10T03:50:16;1.97;;;1.77;;
3541;SDS011;1785;47.388;8.538;2023-05-10T03:52:43;1.77;;;1.67;;
3541;SDS011;1785;47.388;8.538;2023-05-10T03:55:09;1.83;;;1.58;;
3541;SDS011;1785;47.388;8.538;2023-05-10T03:57:36;1.77;;;1.67;;
3541;SDS011;1785;47.388;8.538;2023-05-10T04:00:02;1.60;;;1.50;;
3541;SDS011;1785;47.388;8.538;2023-05-10T04:02:28;1.83;;;1.73;;
3541;SDS011;1785;47.388;8.538;2023-05-10T04:04:55;1.70;;;1.60;;
3541;SDS011;1785;47.388;8.538;2023-05-10T04:07:21;2.10;;;1.63;;
3541;SDS011;1785;47.388;8.538;2023-05-10T04:09:47;1.43;;;1.33;;
3541;SDS011;1785;47.388;8.538;2023-05-10T04:12:13;2.23;;;1.70;;
3541;SDS011;1785;47.388;8.538;2023-05-10T04:14:40;1.80;;;1.70;;
3541;SDS011;1785;47.388;8.538;2023-05-10T04:17:06;4.20;;;1.93;;
3541;SDS011;1785;47.388;8.538;2023-05-10T04:19:32;2.40;;;1.60;;
3541;SDS011;1785;47.388;8.538;2023-05-10T04:21:59;2.20;;;2.10;;
3541;SDS011;1785;47.388;8.538;2023-05-10T04:24:25;1.97;;;1.87;;
3541;SDS011;1785;47.388;8.538;2023-05-10T04:26:51;2.77;;;1.90;;
3541;SDS011;1785;47.388;8.538;2023-05-10T04:29:19;1.87;;;1.77;;
3541;SDS011;1785;47.388;8.538;2023-05-10T04:31:45;1.73;;;1.63;;
3541;SDS011;1785;47.388;8.538;2023-05-10T04:34:11;5.00;;;1.90;;
3541;SDS011;1785;47.388;8.538;2023-05-10T04:36:38;1.57;;;1.47;;
3541;SDS011;1785;47.388;8.538;2023-05-10T04:39:04;2.03;;;1.80;;
3541;SDS011;1785;47.388;8.538;2023-05-10T04:41:30;2.60;;;1.70;;
3541;SDS011;1785;47.388;8.538;2023-05-10T04:43:57;1.90;;;1.70;;
3541;SDS011;1785;47.388;8.538;2023-05-10T04:46:23;2.10;;;2.00;;
3541;SDS011;1785;47.388;8.538;2023-05-10T04:48:49;2.30;;;2.10;;
3541;SDS011;1785;47.388;8.538;2023-05-10T04:51:15;1.57;;;1.27;;
3541;SDS011;1785;47.388;8.538;2023-05-10T04:53:41;2.27;;;1.27;;
3541;SDS011;1785;47.388;8.538;2023-05-10T04:56:08;1.60;;;1.50;;
3541;SDS011;1785;47.388;8.538;2023-05-10T04:58:34;1.63;;;1.53;;
3541;SDS011;1785;47.388;8.538;2023-05-10T05:01:05;1.53;;;1.43;;
3541;SDS011;1785;47.388;8.538;2023-05-10T05:03:32;1.60;;;1.50;;
3541;SDS011;1785;47.388;8.538;2023-05-10T05:05:58;2.00;;;1.90;;
3541;SDS011;1785;47.388;8.538;2023-05-10T05:08:24;2.20;;;2.00;;
3541;SDS011;1785;47.388;8.538;2023-05-10T05:10:51;1.60;;;1.50;;
3541;SDS011;1785;47.388;8.538;2023-05-10T05:13:17;1.70;;;1.53;;
3541;SDS011;1785;47.388;8.538;2023-05-10T05:15:44;3.13;;;1.73;;
3541;SDS011;1785;47.388;8.538;2023-05-10T05:18:10;1.83;;;1.73;;
3541;SDS011;1785;47.388;8.538;2023-05-10T05:20:36;1.73;;;1.47;;
3541;SDS011;1785;47.388;8.538;2023-05-10T05:23:02;2.03;;;1.83;;
3541;SDS011;1785;47.388;8.538;2023-05-10T05:25:28;1.93;;;1.83;;
3541;SDS011;1785;47.388;8.538;2023-05-10T05:27:54;2.37;;;1.80;;
3541;SDS011;1785;47.388;8.538;2023-05-10T05:30:21;2.30;;;1.73;;
3541;SDS011;1785;47.388;8.538;2023-05-10T05:32:47;3.63;;;1.50;;
3541;SDS011;1785;47.388;8.538;2023-05-10T05:35:13;1.50;;;1.33;;
3541;SDS011;1785;47.388;8.538;2023-05-10T05:37:39;2.30;;;1.77;;
3541;SDS011;1785;47.388;8.538;2023-05-10T05:40:06;2.07;;;1.63;;
3541;SDS011;1785;47.388;8.538;2023-05-10T05:42:33;1.57;;;1.47;;
3541;SDS011;1785;47.388;8.538;2023-05-10T05:44:59;1.50;;;1.40;;
3541;SDS011;1785;47.388;8.538;2023-05-10T05:47:26;2.57;;;1.80;;
3541;SDS011;1785;47.388;8.538;2023-05-10T05:49:52;2.70;;;2.00;;
3541;SDS011;1785;47.388;8.538;2023-05-10T05:52:18;2.03;;;1.20;;
3541;SDS011;1785;47.388;8.538;2023-05-10T05:54:44;1.77;;;1.67;;
3541;SDS011;1785;47.388;8.538;2023-05-10T05:57:10;2.43;;;1.57;;
3541;SDS011;1785;47.388;8.538;2023-05-10T05:59:39;1.50;;;1.40;;
3541;SDS011;1785;47.388;8.538;2023-05-10T06:02:08;2.90;;;1.80;;
3541;SDS011;1785;47.388;8.538;2023-05-10T06:04:35;2.80;;;1.50;;
3541;SDS011;1785;47.388;8.538;2023-05-10T06:07:01;4.20;;;1.73;;
3541;SDS011;1785;47.388;8.538;2023-05-10T06:09:27;3.13;;;1.87;;
3541;SDS011;1785;47.388;8.538;2023-05-10T06:11:53;2.50;;;1.77;;
3541;SDS011;1785;47.388;8.538;2023-05-10T06:14:20;2.23;;;1.90;;
3541;SDS011;1785;47.388;8.538;2023-05-10T06:16:46;1.70;;;1.60;;
3541;SDS011;1785;47.388;8.538;2023-05-10T06:19:12;2.87;;;1.90;;
3541;SDS011;1785;47.388;8.538;2023-05-10T06:21:39;2.10;;;2.00;;
3541;SDS011;1785;47.388;8.538;2023-05-10T06:24:06;6.73;;;2.53;;
3541;SDS011;1785;47.388;8.538;2023-05-10T06:26:32;1.73;;;1.63;;
3541;SDS011;1785;47.388;8.538;2023-05-10T06:29:01;3.23;;;1.93;;
3541;SDS011;1785;47.388;8.538;2023-05-10T06:31:28;1.83;;;1.73;;
3541;SDS011;1785;47.388;8.538;2023-05-10T06:33:54;2.40;;;2.30;;
3541;SDS011;1785;47.388;8.538;2023-05-10T06:36:20;3.90;;;2.63;;
3541;SDS011;1785;47.388;8.538;2023-05-10T06:38:47;1.60;;;1.50;;
3541;SDS011;1785;47.388;8.538;2023-05-10T06:41:13;2.30;;;2.10;;
3541;SDS011;1785;47.388;8.538;2023-05-10T06:43:39;2.07;;;1.70;;
3541;SDS011;1785;47.388;8.538;2023-05-10T06:46:06;2.70;;;1.77;;
3541;SDS011;1785;47.388;8.538;2023-05-10T06:48:33;2.00;;;1.90;;
3541;SDS011;1785;47.388;8.538;2023-05-10T06:50:59;2.07;;;1.97;;
3541;SDS011;1785;47.388;8.538;2023-05-10T06:53:25;1.80;;;1.70;;
3541;SDS011;1785;47.388;8.538;2023-05-10T06:55:53;1.93;;;1.83;;
3541;SDS011;1785;47.388;8.538;2023-05-10T06:58:19;2.63;;;1.67;;
3541;SDS011;1785;47.388;8.538;2023-05-10T07:00:45;1.57;;;1.47;;
3541;SDS011;1785;47.388;8.538;2023-05-10T07:03:12;1.43;;;1.33;;
3541;SDS011;1785;47.388;8.538;2023-05-10T07:05:39;1.70;;;1.60;;
3541;SDS011;1785;47.388;8.538;2023-05-10T07:08:05;1.63;;;1.53;;
3541;SDS011;1785;47.388;8.538;2023-05-10T07:10:33;2.90;;;1.50;;
3541;SDS011;1785;47.388;8.538;2023-05-10T07:12:59;2.03;;;1.40;;
3541;SDS011;1785;47.388;8.538;2023-05-10T07:15:26;3.93;;;1.93;;
3541;SDS011;1785;47.388;8.538;2023-05-10T07:17:53;1.40;;;1.30;;
3541;SDS011;1785;47.388;8.538;2023-05-10T07:20:19;3.10;;;1.70;;
3541;SDS011;1785;47.388;8.538;2023-05-10T07:22:45;1.53;;;1.40;;
3541;SDS011;1785;47.388;8.538;2023-05-10T07:25:11;5.63;;;2.10;;
3541;SDS011;1785;47.388;8.538;2023-05-10T07:27:37;1.53;;;1.43;;
3541;SDS011;1785;47.388;8.538;2023-05-10T07:30:05;1.43;;;1.33;;
3541;SDS011;1785;47.388;8.538;2023-05-10T07:32:32;1.70;;;0.85;;
3541;SDS011;1785;47.388;8.538;2023-05-10T07:34:58;1.40;;;1.30;;
3541;SDS011;1785;47.388;8.538;2023-05-10T07:37:24;1.80;;;1.70;;
3541;SDS011;1785;47.388;8.538;2023-05-10T07:39:52;2.33;;;2.23;;
3541;SDS011;1785;47.388;8.538;2023-05-10T07:42:18;1.70;;;1.60;;
3541;SDS011;1785;47.388;8.538;2023-05-10T07:44:44;2.27;;;2.00;;
3541;SDS011;1785;47.388;8.538;2023-05-10T07:47:11;2.37;;;2.17;;
3541;SDS011;1785;47.388;8.538;2023-05-10T07:49:37;2.80;;;2.00;;
3541;SDS011;1785;47.388;8.538;2023-05-10T07:52:03;2.20;;;1.60;;
3541;SDS011;1785;47.388;8.538;2023-05-10T07:54:29;1.73;;;1.60;;
3541;SDS011;1785;47.388;8.538;2023-05-10T07:56:56;2.67;;;2.47;;
3541;SDS011;1785;47.388;8.538;2023-05-10T07:59:22;2.23;;;2.03;;
3541;SDS011;1785;47.388;8.538;2023-05-10T08:01:48;1.70;;;1.60;;
3541;SDS011;1785;47.388;8.538;2023-05-10T08:04:15;2.80;;;2.20;;
3541;SDS011;1785;47.388;8.538;2023-05-10T08:06:41;3.13;;;2.10;;
3541;SDS011;1785;47.388;8.538;2023-05-10T08:09:07;2.33;;;2.13;;
3541;SDS011;1785;47.388;8.538;2023-05-10T08:11:34;2.40;;;2.20;;
3541;SDS011;1785;47.388;8.538;2023-05-10T08:14:00;3.93;;;1.80;;
3541;SDS011;1785;47.388;8.538;2023-05-10T08:16:26;2.30;;;2.10;;
3541;SDS011;1785;47.388;8.538;2023-05-10T08:18:52;2.00;;;1.90;;
3541;SDS011;1785;47.388;8.538;2023-05-10T08:21:20;2.43;;;2.33;;
3541;SDS011;1785;47.388;8.538;2023-05-10T08:23:46;2.40;;;2.00;;
3541;SDS011;1785;47.388;8.538;2023-05-10T08:26:13;4.87;;;1.80;;
3541;SDS011;1785;47.388;8.538;2023-05-10T08:28:40;1.83;;;1.73;;
3541;SDS011;1785;47.388;8.538;2023-05-10T08:31:06;1.93;;;1.83;;
3541;SDS011;1785;47.388;8.538;2023-05-10T08:33:32;2.33;;;1.80;;
3541;SDS011;1785;47.388;8.538;2023-05-10T08:35:58;2.50;;;2.30;;
3541;SDS011;1785;47.388;8.538;2023-05-10T08:38:25;3.27;;;1.87;;
3541;SDS011;1785;47.388;8.538;2023-05-10T08:40:51;2.13;;;1.77;;
3541;SDS011;1785;47.388;8.538;2023-05-10T08:43:21;2.27;;;1.90;;
3541;SDS011;1785;47.388;8.538;2023-05-10T08:45:51;1.80;;;1.70;;
3541;SDS011;1785;47.388;8.538;2023-05-10T08:48:19;4.20;;;2.03;;
3541;SDS011;1785;47.388;8.538;2023-05-10T08:50:49;4.73;;;2.33;;
3541;SDS011;1785;47.388;8.538;2023-05-10T08:53:20;2.50;;;1.73;;
3541;SDS011;1785;47.388;8.538;2023-05-10T08:55:50;1.97;;;1.87;;
3541;SDS011;1785;47.388;8.538;2023-05-10T08:58:17;1.63;;;1.53;;
3541;SDS011;1785;47.388;8.538;2023-05-10T09:00:44;2.50;;;2.30;;
3541;SDS011;1785;47.388;8.538;2023-05-10T09:03:11;2.10;;;1.60;;
3541;SDS011;1785;47.388;8.538;2023-05-10T09:05:38;2.53;;;2.10;;
3541;SDS011;1785;47.388;8.538;2023-05-10T09:08:04;3.20;;;3.00;;
3541;SDS011;1785;47.388;8.538;2023-05-10T09:10:31;4.73;;;2.70;;
3541;SDS011;1785;47.388;8.538;2023-05-10T09:12:58;2.07;;;1.70;;
3541;SDS011;1785;47.388;8.538;2023-05-10T09:15:24;3.80;;;2.27;;
3541;SDS011;1785;47.388;8.538;2023-05-10T09:17:51;2.63;;;2.43;;
3541;SDS011;1785;47.388;8.538;2023-05-10T09:20:17;1.90;;;1.80;;
3541;SDS011;1785;47.388;8.538;2023-05-10T09:22:43;2.80;;;1.80;;
3541;SDS011;1785;47.388;8.538;2023-05-10T09:25:09;2.13;;;1.87;;
3541;SDS011;1785;47.388;8.538;2023-05-10T09:27:37;3.03;;;2.40;;
3541;SDS011;1785;47.388;8.538;2023-05-10T09:30:06;2.80;;;2.50;;
3541;SDS011;1785;47.388;8.538;2023-05-10T09:32:36;4.23;;;1.90;;
3541;SDS011;1785;47.388;8.538;2023-05-10T09:35:09;2.50;;;2.30;;
3541;SDS011;1785;47.388;8.538;2023-05-10T09:37:36;4.90;;;2.50;;
3541;SDS011;1785;47.388;8.538;2023-05-10T09:40:07;4.73;;;2.50;;
3541;SDS011;1785;47.388;8.538;2023-05-10T09:42:36;3.10;;;2.03;;
3541;SDS011;1785;47.388;8.538;2023-05-10T09:45:03;4.03;;;1.70;;
3541;SDS011;1785;47.388;8.538;2023-05-10T09:47:31;2.03;;;1.83;;
3541;SDS011;1785;47.388;8.538;2023-05-10T09:49:59;13.47;;;2.60;;
3541;SDS011;1785;47.388;8.538;2023-05-10T09:52:28;2.40;;;2.20;;
3541;SDS011;1785;47.388;8.538;2023-05-10T09:54:55;4.23;;;2.13;;
3541;SDS011;1785;47.388;8.538;2023-05-10T09:57:21;6.17;;;1.80;;
3541;SDS011;1785;47.388;8.538;2023-05-10T09:59:48;2.80;;;2.13;;
3541;SDS011;1785;47.388;8.538;2023-05-10T10:02:15;2.03;;;1.83;;
3541;SDS011;1785;47.388;8.538;2023-05-10T10:04:42;2.73;;;2.10;;
3541;SDS011;1785;47.388;8.538;2023-05-10T10:07:08;3.63;;;2.27;;
3541;SDS011;1785;47.388;8.538;2023-05-10T10:09:35;3.73;;;2.13;;
3541;SDS011;1785;47.388;8.538;2023-05-10T10:12:01;4.45;;;1.80;;
3541;SDS011;1785;47.388;8.538;2023-05-10T10:14:27;2.00;;;1.90;;
3541;SDS011;1785;47.388;8.538;2023-05-10T10:16:54;4.00;;;2.30;;
3541;SDS011;1785;47.388;8.538;2023-05-10T10:19:21;2.33;;;2.13;;
3541;SDS011;1785;47.388;8.538;2023-05-10T10:21:48;3.53;;;1.83;;
3541;SDS011;1785;47.388;8.538;2023-05-10T10:24:15;3.50;;;1.90;;
3541;SDS011;1785;47.388;8.538;2023-05-10T10:26:42;3.20;;;1.70;;
3541;SDS011;1785;47.388;8.538;2023-05-10T10:29:14;5.13;;;2.20;;
3541;SDS011;1785;47.388;8.538;2023-05-10T10:31:50;3.10;;;2.30;;
3541;SDS011;1785;47.388;8.538;2023-05-10T10:34:25;2.30;;;2.10;;
3541;SDS011;1785;47.388;8.538;2023-05-10T10:36:54;2.57;;;2.30;;
3541;SDS011;1785;47.388;8.538;2023-05-10T10:39:21;4.53;;;2.10;;
3541;SDS011;1785;47.388;8.538;2023-05-10T10:41:50;3.10;;;2.60;;
3541;SDS011;1785;47.388;8.538;2023-05-10T10:44:33;2.27;;;2.07;;
3541;SDS011;1785;47.388;8.538;2023-05-10T10:47:06;2.60;;;2.07;;
3541;SDS011;1785;47.388;8.538;2023-05-10T10:49:49;5.63;;;2.00;;
3541;SDS011;1785;47.388;8.538;2023-05-10T10:52:24;1.60;;;1.50;;
3541;SDS011;1785;47.388;8.538;2023-05-10T10:54:56;2.77;;;2.10;;
3541;SDS011;1785;47.388;8.538;2023-05-10T10:57:25;3.23;;;2.23;;
3541;SDS011;1785;47.388;8.538;2023-05-10T10:59:53;6.23;;;1.93;;
3541;SDS011;1785;47.388;8.538;2023-05-10T11:02:49;2.30;;;2.10;;
3541;SDS011;1785;47.388;8.538;2023-05-10T11:05:23;2.20;;;2.00;;
3541;SDS011;1785;47.388;8.538;2023-05-10T11:07:52;3.07;;;1.63;;
3541;SDS011;1785;47.388;8.538;2023-05-10T11:10:19;4.80;;;2.20;;
3541;SDS011;1785;47.388;8.538;2023-05-10T11:12:50;2.43;;;1.80;;
3541;SDS011;1785;47.388;8.538;2023-05-10T11:15:17;3.40;;;2.00;;
3541;SDS011;1785;47.388;8.538;2023-05-10T11:17:44;3.73;;;2.00;;
3541;SDS011;1785;47.388;8.538;2023-05-10T11:20:14;3.13;;;2.03;;
3541;SDS011;1785;47.388;8.538;2023-05-10T11:22:49;3.87;;;2.20;;
3541;SDS011;1785;47.388;8.538;2023-05-10T11:25:16;3.67;;;2.20;;
3541;SDS011;1785;47.388;8.538;2023-05-10T11:27:43;2.20;;;2.00;;
3541;SDS011;1785;47.388;8.538;2023-05-10T11:30:11;1.90;;;1.77;;
3541;SDS011;1785;47.388;8.538;2023-05-10T11:32:38;4.67;;;2.00;;
3541;SDS011;1785;47.388;8.538;2023-05-10T11:35:06;2.37;;;2.17;;
3541;SDS011;1785;47.388;8.538;2023-05-10T11:37:33;4.83;;;2.07;;
3541;SDS011;1785;47.388;8.538;2023-05-10T11:39:59;5.00;;;2.10;;
3541;SDS011;1785;47.388;8.538;2023-05-10T11:42:27;7.10;;;1.80;;
3541;SDS011;1785;47.388;8.538;2023-05-10T11:44:53;3.20;;;2.10;;
3541;SDS011;1785;47.388;8.538;2023-05-10T11:47:20;4.40;;;2.37;;
3541;SDS011;1785;47.388;8.538;2023-05-10T11:49:47;2.57;;;1.80;;
3541;SDS011;1785;47.388;8.538;2023-05-10T11:52:14;2.40;;;1.90;;
3541;SDS011;1785;47.388;8.538;2023-05-10T11:54:44;3.07;;;1.50;;
3541;SDS011;1785;47.388;8.538;2023-05-10T11:57:17;1.43;;;1.33;;
3541;SDS011;1785;47.388;8.538;2023-05-10T11:59:44;5.90;;;1.80;;
3541;SDS011;1785;47.388;8.538;2023-05-10T12:02:11;2.13;;;1.77;;
3541;SDS011;1785;47.388;8.538;2023-05-10T12:04:37;2.70;;;1.87;;
3541;SDS011;1785;47.388;8.538;2023-05-10T12:07:04;4.30;;;2.30;;
3541;SDS011;1785;47.388;8.538;2023-05-10T12:09:30;2.10;;;1.90;;
3541;SDS011;1785;47.388;8.538;2023-05-10T12:11:56;2.20;;;1.97;;
3541;SDS011;1785;47.388;8.538;2023-05-10T12:14:22;5.20;;;2.20;;
3541;SDS011;1785;47.388;8.538;2023-05-10T12:16:50;2.63;;;2.43;;
3541;SDS011;1785;47.388;8.538;2023-05-10T12:19:18;3.00;;;2.57;;
3541;SDS011;1785;47.388;8.538;2023-05-10T12:21:44;3.10;;;2.20;;
3541;SDS011;1785;47.388;8.538;2023-05-10T12:24:11;2.10;;;2.00;;
3541;SDS011;1785;47.388;8.538;2023-05-10T12:26:38;2.97;;;2.70;;
3541;SDS011;1785;47.388;8.538;2023-05-10T12:29:14;2.90;;;2.23;;
3541;SDS011;1785;47.388;8.538;2023-05-10T12:31:52;7.97;;;3.13;;
3541;SDS011;1785;47.388;8.538;2023-05-10T12:34:25;7.80;;;2.47;;
3541;SDS011;1785;47.388;8.538;2023-05-10T12:36:52;5.17;;;2.60;;
3541;SDS011;1785;47.388;8.538;2023-05-10T12:39:18;3.50;;;2.03;;
3541;SDS011;1785;47.388;8.538;2023-05-10T12:41:44;3.27;;;2.37;;
3541;SDS011;1785;47.388;8.538;2023-05-10T12:44:10;4.63;;;2.00;;
3541;SDS011;1785;47.388;8.538;2023-05-10T12:46:36;2.10;;;1.90;;
3541;SDS011;1785;47.388;8.538;2023-05-10T12:49:03;1.90;;;1.80;;
3541;SDS011;1785;47.388;8.538;2023-05-10T12:51:29;3.93;;;2.80;;
3541;SDS011;1785;47.388;8.538;2023-05-10T12:53:56;3.73;;;1.77;;
3541;SDS011;1785;47.388;8.538;2023-05-10T12:56:22;2.77;;;2.00;;
3541;SDS011;1785;47.388;8.538;2023-05-10T12:58:48;2.80;;;1.77;;
3541;SDS011;1785;47.388;8.538;2023-05-10T13:01:14;5.10;;;2.20;;
3541;SDS011;1785;47.388;8.538;2023-05-10T13:03:40;1.80;;;1.70;;
3541;SDS011;1785;47.388;8.538;2023-05-10T13:06:08;3.40;;;2.50;;
3541;SDS011;1785;47.388;8.538;2023-05-10T13:08:35;3.93;;;2.13;;
3541;SDS011;1785;47.388;8.538;2023-05-10T13:11:01;3.23;;;2.83;;
3541;SDS011;1785;47.388;8.538;2023-05-10T13:13:28;4.23;;;2.43;;
3541;SDS011;1785;47.388;8.538;2023-05-10T13:15:54;4.80;;;2.70;;
3541;SDS011;1785;47.388;8.538;2023-05-10T13:18:20;4.73;;;2.77;;
3541;SDS011;1785;47.388;8.538;2023-05-10T13:20:46;9.77;;;2.53;;
3541;SDS011;1785;47.388;8.538;2023-05-10T13:23:15;4.47;;;2.70;;
3541;SDS011;1785;47.388;8.538;2023-05-10T13:25:42;6.90;;;3.07;;
3541;SDS011;1785;47.388;8.538;2023-05-10T13:28:08;3.67;;;3.10;;
3541;SDS011;1785;47.388;8.538;2023-05-10T13:30:34;4.60;;;3.13;;
3541;SDS011;1785;47.388;8.538;2023-05-10T13:33:00;2.83;;;2.60;;
3541;SDS011;1785;47.388;8.538;2023-05-10T13:35:26;3.40;;;2.80;;
3541;SDS011;1785;47.388;8.538;2023-05-10T13:37:52;6.93;;;3.20;;
3541;SDS011;1785;47.388;8.538;2023-05-10T13:40:22;3.13;;;2.87;;
3541;SDS011;1785;47.388;8.538;2023-05-10T13:42:48;3.83;;;3.30;;
3541;SDS011;1785;47.388;8.538;2023-05-10T13:45:14;4.57;;;2.97;;
3541;SDS011;1785;47.388;8.538;2023-05-10T13:47:41;4.10;;;3.30;;
3541;SDS011;1785;47.388;8.538;2023-05-10T13:50:07;4.33;;;2.70;;
3541;SDS011;1785;47.388;8.538;2023-05-10T13:52:34;2.90;;;2.70;;
3541;SDS011;1785;47.388;8.538;2023-05-10T13:55:01;10.40;;;3.43;;
3541;SDS011;1785;47.388;8.538;2023-05-10T13:57:28;3.33;;;2.90;;
3541;SDS011;1785;47.388;8.538;2023-05-10T13:59:55;4.37;;;3.30;;
3541;SDS011;1785;47.388;8.538;2023-05-10T14:02:23;7.70;;;3.27;;
3541;SDS011;1785;47.388;8.538;2023-05-10T14:04:51;3.07;;;2.77;;
3541;SDS011;1785;47.388;8.538;2023-05-10T14:07:17;4.20;;;2.87;;
3541;SDS011;1785;47.388;8.538;2023-05-10T14:09:44;3.27;;;2.93;;
3541;SDS011;1785;47.388;8.538;2023-05-10T14:12:10;3.80;;;2.73;;
3541;SDS011;1785;47.388;8.538;2023-05-10T14:14:37;8.03;;;3.63;;
3541;SDS011;1785;47.388;8.538;2023-05-10T14:17:03;7.57;;;3.10;;
3541;SDS011;1785;47.388;8.538;2023-05-10T14:19:29;3.90;;;3.60;;
3541;SDS011;1785;47.388;8.538;2023-05-10T14:21:59;26.40;;;21.70;;
3541;SDS011;1785;47.388;8.538;2023-05-10T14:24:25;11.87;;;9.30;;
3541;SDS011;1785;47.388;8.538;2023-05-10T14:26:51;10.93;;;8.60;;
3541;SDS011;1785;47.388;8.538;2023-05-10T14:29:19;13.57;;;12.23;;
3541;SDS011;1785;47.388;8.538;2023-05-10T14:31:45;18.63;;;13.50;;
3541;SDS011;1785;47.388;8.538;2023-05-10T14:34:11;10.20;;;8.70;;
3541;SDS011;1785;47.388;8.538;2023-05-10T14:36:38;6.03;;;5.30;;
3541;SDS011;1785;47.388;8.538;2023-05-10T14:39:04;4.40;;;3.37;;
3541;SDS011;1785;47.388;8.538;2023-05-10T14:41:31;7.80;;;6.57;;
3541;SDS011;1785;47.388;8.538;2023-05-10T14:43:58;4.73;;;4.23;;
3541;SDS011;1785;47.388;8.538;2023-05-10T14:46:24;11.47;;;5.10;;
3541;SDS011;1785;47.388;8.538;2023-05-10T14:48:51;7.30;;;5.27;;
3541;SDS011;1785;47.388;8.538;2023-05-10T14:51:17;4.40;;;3.90;;
3541;SDS011;1785;47.388;8.538;2023-05-10T14:53:46;11.87;;;9.83;;
3541;SDS011;1785;47.388;8.538;2023-05-10T14:56:12;6.33;;;5.73;;
3541;SDS011;1785;47.388;8.538;2023-05-10T14:58:39;18.30;;;14.37;;
3541;SDS011;1785;47.388;8.538;2023-05-10T15:01:05;22.73;;;19.03;;
3541;SDS011;1785;47.388;8.538;2023-05-10T15:03:31;10.17;;;7.37;;
3541;SDS011;1785;47.388;8.538;2023-05-10T15:05:57;13.40;;;7.77;;
3541;SDS011;1785;47.388;8.538;2023-05-10T15:08:24;10.40;;;7.70;;
3541;SDS011;1785;47.388;8.538;2023-05-10T15:10:50;3.37;;;2.50;;
3541;SDS011;1785;47.388;8.538;2023-05-10T15:13:16;5.13;;;2.23;;
3541;SDS011;1785;47.388;8.538;2023-05-10T15:15:42;2.17;;;1.97;;
3541;SDS011;1785;47.388;8.538;2023-05-10T15:18:08;3.90;;;2.27;;
3541;SDS011;1785;47.388;8.538;2023-05-10T15:20:35;2.47;;;2.27;;